Time;durP1;ratioP1;P1;durP2;ratioP2;P2;SDS_P1;SDS_P2;PMS_P1;PMS_P2;Temp;Humidity;BMP_temperature;BMP_pressure;BME280_temperature;BME280_humidity;BME280_pressure;Samples;Min_cycle;Max_cycle;Signal;HPM_P1;HPM_P2
2022/08/16 00:01:17;;;;;;;66.50;6.83;;;21.90;80.00;;;;;;5061837;28;20414;-82
2022/08/16 00:03:44;;;;;;;67.63;8.10;;;21.80;80.80;;;;;;5080421;28;20445;-82
2022/08/16 00:06:10;;;;;;;67.30;7.37;;;21.80;82.20;;;;;;5080506;28;20410;-82
2022/08/16 00:08:39;;;;;;;68.20;7.77;;;21.80;82.50;;;;;;5080286;28;20804;-82
2022/08/16 00:11:07;;;;;;;69.60;9.47;;;21.80;83.20;;;;;;5080221;28;20399;-82
2022/08/16 00:13:33;;;;;;;68.27;8.00;;;21.70;86.00;;;;;;5062370;28;20504;-82
2022/08/16 00:15:58;;;;;;;68.97;8.63;;;21.70;85.00;;;;;;5079851;28;20419;-82
2022/08/16 00:18:24;;;;;;;68.57;8.73;;;21.60;86.10;;;;;;5061802;28;20426;-82
2022/08/16 00:20:50;;;;;;;69.73;8.37;;;21.70;85.80;;;;;;5080224;28;20164;-82
2022/08/16 00:23:16;;;;;;;68.70;8.77;;;21.70;84.80;;;;;;5079658;28;20453;-82
2022/08/16 00:25:42;;;;;;;68.33;7.47;;;21.70;84.50;;;;;;5080241;28;20153;-82
2022/08/16 00:28:08;;;;;;;69.97;10.87;;;21.60;85.70;;;;;;5080266;28;20453;-82
2022/08/16 00:30:34;;;;;;;67.57;9.40;;;21.50;89.40;;;;;;5080739;28;20429;-82
2022/08/16 00:33:01;;;;;;;68.80;11.03;;;21.50;89.70;;;;;;5080060;28;20164;-82
2022/08/16 00:35:31;;;;;;;68.17;10.70;;;21.40;88.90;;;;;;5079424;28;20186;-82
2022/08/16 00:37:58;;;;;;;68.40;11.47;;;21.40;88.90;;;;;;5080352;28;20389;-83
2022/08/16 00:40:35;;;;;;;72.80;15.17;;;21.40;91.80;;;;;;5079547;28;20402;-82
2022/08/16 00:43:06;;;;;;;71.97;17.60;;;21.10;94.80;;;;;;5061884;28;20477;-82
2022/08/16 00:46:06;;;;;;;74.07;22.07;;;21.10;96.70;;;;;;5079705;28;20750;-83
2022/08/16 00:48:32;;;;;;;71.27;20.40;;;21.00;97.80;;;;;;5047256;28;20418;-82
2022/08/16 00:51:00;;;;;;;75.13;22.10;;;21.00;97.30;;;;;;5079669;28;20403;-83
2022/08/16 00:53:26;;;;;;;72.53;22.77;;;21.00;96.90;;;;;;5079481;28;20501;-82
2022/08/16 00:55:55;;;;;;;72.37;20.67;;;21.10;96.00;;;;;;5079694;28;20404;-82
2022/08/16 00:58:23;;;;;;;73.43;14.00;;;21.20;94.50;;;;;;5079855;28;20797;-82
2022/08/16 01:00:50;;;;;;;70.43;15.83;;;21.30;92.50;;;;;;5061290;28;20399;-82
2022/08/16 01:03:18;;;;;;;71.53;21.47;;;21.20;93.80;;;;;;5060858;28;20446;-82
2022/08/16 01:05:46;;;;;;;72.83;23.33;;;21.10;95.70;;;;;;5079153;28;20401;-82
2022/08/16 01:08:13;;;;;;;73.70;22.93;;;21.10;96.00;;;;;;5079393;28;20398;-82
2022/08/16 01:10:40;;;;;;;73.37;25.57;;;21.10;95.30;;;;;;5078981;28;20472;-82
2022/08/16 01:13:16;;;;;;;72.60;24.50;;;21.00;96.10;;;;;;5079627;28;20481;-82
2022/08/16 01:15:55;;;;;;;74.60;25.20;;;20.90;98.20;;;;;;5078996;28;20438;-82
2022/08/16 01:18:25;;;;;;;74.70;28.87;;;20.90;98.00;;;;;;5060465;28;20398;-82
2022/08/16 01:21:17;;;;;;;77.63;33.80;;;20.80;99.90;;;;;;5078456;28;20394;-82
2022/08/16 01:24:15;;;;;;;79.97;30.63;;;20.70;99.90;;;;;;5070388;28;20617;-82
2022/08/16 01:26:43;;;;;;;75.20;29.00;;;20.70;99.90;;;;;;5060708;28;20953;-82
2022/08/16 01:29:14;;;;;;;74.67;29.40;;;20.70;99.90;;;;;;5061007;28;20965;-82
2022/08/16 01:31:40;;;;;;;76.50;31.53;;;20.70;99.90;;;;;;5061648;28;20387;-82
2022/08/16 01:34:06;;;;;;;78.20;33.90;;;20.60;99.90;;;;;;5078160;28;20467;-82
2022/08/16 01:36:34;;;;;;;75.97;28.23;;;20.60;99.90;;;;;;5078720;28;20478;-83
2022/08/16 01:39:11;;;;;;;76.37;31.53;;;20.60;99.90;;;;;;5078691;28;20406;-82
2022/08/16 01:41:37;;;;;;;75.87;28.77;;;20.70;99.90;;;;;;5060786;28;20390;-82
2022/08/16 01:44:03;;;;;;;75.40;28.13;;;20.80;98.80;;;;;;5078594;28;20453;-82
2022/08/16 01:46:41;;;;;;;75.20;27.50;;;20.90;98.20;;;;;;5062056;28;20179;-82
2022/08/16 01:49:21;;;;;;;75.90;26.80;;;20.90;97.70;;;;;;5065133;28;20449;-82
2022/08/16 01:51:56;;;;;;;76.80;28.60;;;20.80;99.20;;;;;;5082598;28;20403;-83
2022/08/16 01:54:21;;;;;;;77.93;29.90;;;20.70;99.90;;;;;;5083295;28;20385;-82
2022/08/16 01:56:47;;;;;;;77.27;29.43;;;20.60;99.90;;;;;;5064993;28;20483;-82
2022/08/16 01:59:14;;;;;;;75.00;27.33;;;20.50;99.90;;;;;;5083315;28;20175;-82
2022/08/16 02:01:40;;;;;;;75.50;31.07;;;20.50;99.90;;;;;;5083103;28;20401;-82
2022/08/16 02:04:06;;;;;;;75.97;24.37;;;20.40;99.90;;;;;;5064624;28;21003;-82
2022/08/16 02:06:33;;;;;;;74.87;26.53;;;20.40;99.90;;;;;;5064818;28;20437;-82
2022/08/16 02:08:59;;;;;;;74.70;25.43;;;20.40;99.90;;;;;;5064501;28;20646;-82
2022/08/16 02:11:28;;;;;;;77.47;30.50;;;20.40;99.90;;;;;;5082959;28;20405;-83
2022/08/16 02:13:54;;;;;;;72.27;23.53;;;20.50;99.90;;;;;;5082818;28;20405;-82
2022/08/16 02:16:20;;;;;;;73.67;22.17;;;20.50;99.90;;;;;;5082314;28;20424;-82
2022/08/16 02:18:46;;;;;;;75.10;25.33;;;20.40;99.90;;;;;;5064158;28;20936;-82
2022/08/16 02:21:13;;;;;;;75.87;22.07;;;20.40;99.90;;;;;;5082549;28;20741;-82
2022/08/16 02:23:39;;;;;;;71.87;19.40;;;20.40;99.90;;;;;;5082510;28;20449;-82
2022/08/16 02:26:06;;;;;;;74.80;22.93;;;20.40;99.90;;;;;;5064196;28;20493;-82
2022/08/16 02:28:32;;;;;;;71.67;18.10;;;20.40;99.90;;;;;;5064061;28;20838;-82
2022/08/16 02:31:01;;;;;;;74.37;20.07;;;20.40;99.90;;;;;;5082003;28;20407;-82
2022/08/16 02:33:27;;;;;;;71.47;18.73;;;20.50;99.90;;;;;;5064240;28;20967;-82
2022/08/16 02:35:53;;;;;;;71.17;18.57;;;20.50;99.90;;;;;;5082543;28;20420;-82
2022/08/16 02:38:19;;;;;;;73.50;19.47;;;20.50;99.90;;;;;;5063436;28;20503;-82
2022/08/16 02:40:44;;;;;;;71.97;19.97;;;20.40;99.90;;;;;;5081656;28;20635;-82
2022/08/16 02:43:10;;;;;;;72.80;18.70;;;20.30;99.90;;;;;;5064144;28;20769;-82
2022/08/16 02:45:36;;;;;;;70.23;16.70;;;20.30;99.90;;;;;;5063754;28;20192;-82
2022/08/16 02:48:02;;;;;;;70.70;16.33;;;20.20;99.90;;;;;;5081966;28;20164;-82
2022/08/16 02:50:28;;;;;;;69.77;15.80;;;20.10;99.90;;;;;;5064289;28;20170;-82
2022/08/16 02:52:54;;;;;;;70.73;13.17;;;20.10;99.90;;;;;;5082190;28;20490;-82
2022/08/16 02:55:21;;;;;;;71.83;15.40;;;20.10;99.90;;;;;;5064460;28;20440;-82
2022/08/16 02:57:47;;;;;;;70.10;14.13;;;20.10;99.90;;;;;;5063467;28;20188;-83
2022/08/16 03:00:15;;;;;;;74.80;16.20;;;20.30;99.90;;;;;;5081902;28;20464;-82
2022/08/16 03:02:43;;;;;;;71.77;14.17;;;20.20;99.90;;;;;;5081488;28;20242;-83
2022/08/16 03:05:12;;;;;;;73.30;14.37;;;20.10;99.90;;;;;;5063191;28;20856;-82
2022/08/16 03:07:38;;;;;;;70.53;12.13;;;20.00;99.90;;;;;;5063565;28;20430;-82
2022/08/16 03:10:07;;;;;;;71.30;15.03;;;20.00;99.90;;;;;;5081587;28;20973;-83
2022/08/16 03:12:33;;;;;;;74.53;11.67;;;20.00;99.90;;;;;;5063918;28;20884;-82
2022/08/16 03:14:59;;;;;;;68.60;12.20;;;20.00;99.90;;;;;;5080791;28;20444;-83
2022/08/16 03:17:25;;;;;;;70.50;12.20;;;20.00;99.90;;;;;;5080565;28;20184;-83
2022/08/16 03:19:52;;;;;;;74.83;14.63;;;20.00;99.90;;;;;;5063114;28;20168;-82
2022/08/16 03:22:21;;;;;;;70.87;14.03;;;19.90;99.90;;;;;;5063267;28;20419;-82
2022/08/16 03:24:47;;;;;;;75.10;21.33;;;19.90;99.90;;;;;;5080897;28;20445;-82
2022/08/16 03:27:13;;;;;;;70.80;15.97;;;19.70;99.90;;;;;;5081245;28;20423;-83
2022/08/16 03:29:38;;;;;;;73.17;16.07;;;19.90;99.90;;;;;;5145445;22;20302;-81
2022/08/16 03:32:04;;;;;;;73.57;19.50;;;19.90;99.90;;;;;;5065458;28;20181;-81
2022/08/16 03:34:34;;;;;;;73.00;18.53;;;19.80;99.90;;;;;;5083588;28;20527;-81
2022/08/16 03:37:01;;;;;;;75.80;12.37;;;19.80;99.90;;;;;;5085369;28;20414;-81
2022/08/16 03:39:27;;;;;;;71.97;12.37;;;19.90;99.90;;;;;;5084753;28;20400;-81
2022/08/16 03:41:53;;;;;;;71.43;13.77;;;19.90;99.90;;;;;;5085156;28;20465;-81
2022/08/16 03:44:20;;;;;;;72.07;12.87;;;19.90;99.90;;;;;;5084602;28;20933;-81
2022/08/16 03:46:46;;;;;;;71.90;12.87;;;19.90;99.90;;;;;;5084686;28;20440;-81
2022/08/16 03:49:12;;;;;;;72.80;16.70;;;19.80;99.90;;;;;;5084967;28;20431;-81
2022/08/16 03:51:40;;;;;;;72.60;12.57;;;19.80;99.90;;;;;;5084732;28;20803;-81
2022/08/16 03:54:06;;;;;;;69.70;13.07;;;19.80;99.90;;;;;;5067450;28;20418;-81
2022/08/16 03:56:32;;;;;;;71.13;12.57;;;19.80;99.90;;;;;;5066974;28;20434;-81
2022/08/16 03:58:59;;;;;;;68.73;10.80;;;19.90;99.90;;;;;;5066866;28;20424;-81
2022/08/16 04:01:25;;;;;;;70.47;11.87;;;19.90;99.90;;;;;;5067280;28;20186;-81
2022/08/16 04:03:52;;;;;;;71.03;12.27;;;19.90;99.90;;;;;;5084643;28;20517;-81
2022/08/16 04:06:18;;;;;;;69.73;13.47;;;19.90;99.90;;;;;;5084662;28;20433;-81
2022/08/16 04:08:44;;;;;;;69.83;12.93;;;19.70;99.90;;;;;;5083464;28;20403;-81
2022/08/16 04:11:10;;;;;;;70.03;13.53;;;19.70;99.90;;;;;;5066496;28;20419;-81
2022/08/16 04:13:36;;;;;;;72.13;11.77;;;19.70;99.90;;;;;;5066444;28;20454;-81
2022/08/16 04:16:02;;;;;;;70.10;11.80;;;19.70;99.90;;;;;;5084410;28;20207;-81
2022/08/16 04:18:29;;;;;;;69.07;10.30;;;19.70;99.90;;;;;;5064778;28;20422;-81
2022/08/16 04:20:55;;;;;;;68.10;11.93;;;19.70;99.90;;;;;;5064652;28;20168;-81
2022/08/16 04:23:22;;;;;;;69.50;10.77;;;19.70;99.90;;;;;;5084207;28;20519;-81
2022/08/16 04:25:49;;;;;;;69.67;14.37;;;19.70;99.90;;;;;;5066436;28;20160;-81
2022/08/16 04:28:15;;;;;;;69.27;12.57;;;19.60;99.90;;;;;;5084440;28;20412;-81
2022/08/16 04:30:40;;;;;;;70.17;11.90;;;19.60;99.90;;;;;;5066537;28;20456;-81
2022/08/16 04:33:07;;;;;;;70.07;13.80;;;19.60;99.90;;;;;;5083725;28;20410;-81
2022/08/16 04:35:34;;;;;;;70.27;13.97;;;19.60;99.90;;;;;;5082415;28;20215;-80
2022/08/16 04:38:01;;;;;;;69.83;12.93;;;19.60;99.90;;;;;;5064295;28;20422;-81
2022/08/16 04:40:27;;;;;;;68.97;12.63;;;19.60;99.90;;;;;;5082545;28;20753;-81
2022/08/16 04:42:54;;;;;;;71.27;12.30;;;19.60;99.90;;;;;;5082053;28;20401;-81
2022/08/16 04:45:20;;;;;;;68.40;12.63;;;19.60;99.90;;;;;;5082260;28;20196;-81
2022/08/16 04:47:46;;;;;;;71.63;14.43;;;19.60;99.90;;;;;;5082482;28;20482;-81
2022/08/16 04:50:19;;;;;;;69.97;13.63;;;19.60;99.90;;;;;;5083087;28;20402;-81
2022/08/16 04:52:46;;;;;;;69.77;11.17;;;19.60;99.90;;;;;;5081891;28;20411;-81
2022/08/16 04:55:15;;;;;;;69.27;12.10;;;19.70;99.90;;;;;;5084606;28;20411;-81
2022/08/16 04:57:43;;;;;;;69.67;12.80;;;19.70;99.90;;;;;;5064560;28;20845;-81
2022/08/16 05:00:18;;;;;;;70.37;10.53;;;19.80;99.90;;;;;;5063376;28;20413;-81
2022/08/16 05:02:45;;;;;;;69.47;11.17;;;19.90;99.90;;;;;;5064138;28;20435;-81
2022/08/16 05:05:11;;;;;;;67.47;9.10;;;19.80;99.90;;;;;;5081975;28;20584;-81
2022/08/16 05:07:38;;;;;;;68.83;12.40;;;19.80;99.90;;;;;;5082606;28;20424;-81
2022/08/16 05:10:06;;;;;;;69.33;9.40;;;19.80;99.90;;;;;;5065162;28;20430;-81
2022/08/16 05:12:33;;;;;;;68.80;11.43;;;19.80;99.90;;;;;;5082497;28;20414;-81
2022/08/16 05:14:59;;;;;;;67.67;9.70;;;19.90;99.90;;;;;;5082630;28;20505;-81
2022/08/16 05:17:25;;;;;;;67.83;9.83;;;19.90;99.90;;;;;;5064138;28;20436;-81
2022/08/16 05:19:51;;;;;;;71.90;10.40;;;19.90;99.90;;;;;;5082467;28;20433;-81
2022/08/16 05:22:17;;;;;;;70.30;11.83;;;19.90;99.90;;;;;;5067266;28;20781;-82
2022/08/16 05:24:42;;;;;;;68.93;8.70;;;19.90;99.90;;;;;;5065265;28;20207;-81
2022/08/16 05:27:08;;;;;;;70.10;7.93;;;20.10;99.90;;;;;;5047875;28;20434;-81
2022/08/16 05:29:34;;;;;;;69.20;7.30;;;20.10;99.90;;;;;;5064753;28;20216;-81
2022/08/16 05:32:00;;;;;;;67.67;7.80;;;20.20;99.90;;;;;;5087781;28;20415;-82
2022/08/16 05:34:27;;;;;;;70.13;8.23;;;20.20;99.90;;;;;;5069466;28;20173;-81
2022/08/16 05:36:56;;;;;;;72.70;7.37;;;20.20;99.90;;;;;;5087073;28;20493;-81
2022/08/16 05:39:22;;;;;;;69.67;8.30;;;20.30;99.90;;;;;;5087442;28;20413;-81
2022/08/16 05:41:49;;;;;;;67.40;7.27;;;20.40;99.90;;;;;;5086647;28;20504;-81
2022/08/16 05:44:17;;;;;;;72.50;8.73;;;20.40;99.90;;;;;;5086445;28;20474;-81
2022/08/16 05:46:44;;;;;;;67.80;7.00;;;20.40;99.90;;;;;;5087399;28;20423;-81
2022/08/16 05:49:15;;;;;;;68.07;6.80;;;20.40;99.90;;;;;;5064694;28;20915;-81
2022/08/16 05:51:42;;;;;;;69.20;6.60;;;20.40;99.90;;;;;;5064599;28;20816;-81
2022/08/16 05:54:16;;;;;;;71.53;7.07;;;20.50;99.90;;;;;;5064047;28;20419;-82
2022/08/16 05:56:44;;;;;;;72.97;8.30;;;20.50;99.90;;;;;;5081416;28;20433;-82
2022/08/16 05:59:12;;;;;;;69.60;7.60;;;20.50;99.90;;;;;;5086165;28;20957;-81
2022/08/16 06:01:39;;;;;;;68.07;6.63;;;20.50;99.90;;;;;;5068128;28;20411;-81
2022/08/16 06:04:06;;;;;;;69.07;8.50;;;20.60;99.90;;;;;;5067730;28;20543;-81
2022/08/16 06:06:32;;;;;;;70.63;6.87;;;20.60;99.90;;;;;;5086173;28;20432;-81
2022/08/16 06:08:57;;;;;;;69.87;7.30;;;20.60;99.90;;;;;;5086424;28;20834;-81
2022/08/16 06:11:23;;;;;;;76.93;8.47;;;20.70;99.90;;;;;;5086719;28;20182;-81
2022/08/16 06:13:49;;;;;;;68.60;7.27;;;20.70;99.90;;;;;;5085999;28;20180;-81
2022/08/16 06:16:15;;;;;;;71.07;7.40;;;20.80;99.90;;;;;;5083724;28;20267;-82
2022/08/16 06:18:43;;;;;;;70.67;6.77;;;20.90;99.90;;;;;;5064787;28;20439;-81
2022/08/16 06:21:10;;;;;;;69.60;7.50;;;20.90;99.90;;;;;;5082051;28;20176;-81
2022/08/16 06:23:36;;;;;;;69.70;7.10;;;20.90;99.90;;;;;;5081766;28;20440;-81
2022/08/16 06:26:04;;;;;;;70.93;7.10;;;20.90;99.90;;;;;;5063025;28;20427;-81
2022/08/16 06:28:30;;;;;;;69.53;7.60;;;20.80;99.90;;;;;;5082094;28;20931;-81
2022/08/16 06:30:56;;;;;;;67.67;8.13;;;20.80;99.90;;;;;;5082506;28;20853;-81
2022/08/16 06:33:22;;;;;;;68.10;7.20;;;20.90;99.90;;;;;;5085647;28;20401;-81
2022/08/16 06:35:49;;;;;;;73.27;8.17;;;20.90;99.90;;;;;;5085913;28;20405;-81
2022/08/16 06:38:15;;;;;;;68.07;7.10;;;20.90;99.90;;;;;;5085953;28;20751;-81
2022/08/16 06:40:41;;;;;;;67.33;7.80;;;21.00;99.90;;;;;;5086034;28;20429;-81
2022/08/16 06:43:06;;;;;;;70.00;7.90;;;21.00;99.90;;;;;;5066997;28;20246;-81
2022/08/16 06:45:36;;;;;;;70.40;9.10;;;21.00;99.90;;;;;;5084862;28;20167;-81
2022/08/16 06:48:06;;;;;;;69.30;6.73;;;21.10;99.90;;;;;;5066720;28;20164;-81
2022/08/16 06:50:32;;;;;;;70.37;8.63;;;21.10;99.90;;;;;;5085381;28;20399;-81
2022/08/16 06:53:00;;;;;;;69.37;7.17;;;21.20;99.90;;;;;;5084971;28;20470;-81
2022/08/16 06:55:27;;;;;;;69.70;8.27;;;21.20;99.90;;;;;;5067508;28;20414;-81
2022/08/16 06:57:53;;;;;;;69.90;7.43;;;21.30;99.90;;;;;;5067350;28;20472;-81
2022/08/16 07:00:20;;;;;;;72.43;8.50;;;21.30;99.90;;;;;;5084166;28;20394;-81
2022/08/16 07:02:46;;;;;;;70.13;9.03;;;21.30;99.90;;;;;;5085030;28;20402;-81
2022/08/16 07:05:15;;;;;;;69.60;7.97;;;21.30;99.90;;;;;;5067109;28;20457;-81
2022/08/16 07:07:44;;;;;;;71.43;7.90;;;21.40;99.90;;;;;;5084060;28;20255;-82
2022/08/16 07:10:10;;;;;;;72.17;8.60;;;21.40;99.90;;;;;;5067088;28;20751;-81
2022/08/16 07:12:36;;;;;;;67.40;6.33;;;21.40;99.90;;;;;;5085399;28;20433;-81
2022/08/16 07:15:04;;;;;;;68.10;6.60;;;21.50;99.90;;;;;;5067320;28;20420;-81
2022/08/16 07:17:31;;;;;;;73.17;6.33;;;21.60;99.90;;;;;;5084593;28;20422;-81
2022/08/16 07:19:57;;;;;;;67.50;7.47;;;21.60;99.90;;;;;;5085203;28;20413;-82
2022/08/16 07:22:24;;;;;;;68.23;7.03;;;21.70;99.90;;;;;;5067432;28;20414;-81
2022/08/16 07:24:50;;;;;;;66.07;5.40;;;21.80;99.90;;;;;;5067666;28;20491;-81
2022/08/16 07:27:16;;;;;;;70.53;5.83;;;21.80;98.80;;;;;;5085028;28;20781;-81
2022/08/16 07:29:42;;;;;;;67.37;5.73;;;21.90;97.90;;;;;;5066814;28;20419;-82
2022/08/16 07:32:08;;;;;;;68.40;5.37;;;21.90;99.60;;;;;;5084903;28;20497;-82
2022/08/16 07:34:34;;;;;;;70.47;5.67;;;21.90;99.90;;;;;;5085095;28;20415;-82
2022/08/16 07:37:04;;;;;;;67.97;5.90;;;21.90;98.50;;;;;;5083936;28;20426;-82
2022/08/16 07:39:30;;;;;;;67.07;5.77;;;22.00;97.70;;;;;;5065915;28;20164;-82
2022/08/16 07:41:56;;;;;;;67.97;5.83;;;22.10;96.40;;;;;;5066274;28;20497;-81
2022/08/16 07:44:24;;;;;;;65.20;5.00;;;22.20;96.10;;;;;;5083100;28;20457;-82
2022/08/16 07:46:50;;;;;;;68.10;5.20;;;22.20;93.00;;;;;;5083716;28;20235;-82
2022/08/16 07:49:18;;;;;;;66.40;5.27;;;22.30;92.60;;;;;;5065583;28;20410;-82
2022/08/16 07:51:44;;;;;;;68.57;5.80;;;22.30;89.60;;;;;;5066682;28;20647;-82
2022/08/16 07:54:10;;;;;;;67.40;5.10;;;22.50;88.30;;;;;;5083756;28;20417;-82
2022/08/16 07:56:36;;;;;;;66.07;5.83;;;22.50;90.00;;;;;;5084225;28;20462;-82
2022/08/16 07:59:02;;;;;;;69.90;8.10;;;22.60;87.50;;;;;;5083197;28;20402;-82
2022/08/16 08:01:31;;;;;;;66.87;5.70;;;22.70;83.90;;;;;;5084178;28;20413;-81
2022/08/16 08:03:58;;;;;;;66.70;6.60;;;22.70;78.90;;;;;;5083627;28;20960;-82
2022/08/16 08:06:30;;;;;;;68.90;7.93;;;22.80;80.20;;;;;;5083728;28;20430;-82
2022/08/16 08:08:57;;;;;;;67.70;7.47;;;22.90;76.50;;;;;;5084270;28;20382;-81
2022/08/16 08:11:23;;;;;;;67.87;7.87;;;23.00;76.60;;;;;;5084810;28;20405;-82
2022/08/16 08:13:51;;;;;;;69.50;9.30;;;23.10;72.30;;;;;;5084322;28;20406;-82
2022/08/16 08:16:20;;;;;;;68.77;8.40;;;23.10;66.80;;;;;;5065897;28;20430;-81
2022/08/16 08:18:49;;;;;;;69.37;9.50;;;23.20;66.90;;;;;;5065800;28;20418;-82
2022/08/16 08:21:18;;;;;;;66.97;8.30;;;23.20;64.60;;;;;;5082962;28;20411;-81
2022/08/16 08:23:46;;;;;;;68.70;9.43;;;23.20;66.90;;;;;;5082198;28;20446;-81
2022/08/16 08:26:12;;;;;;;69.27;8.20;;;23.20;64.10;;;;;;5065461;28;20426;-81
2022/08/16 08:28:38;;;;;;;69.57;7.73;;;23.20;60.80;;;;;;5083661;28;20413;-81
2022/08/16 08:31:04;;;;;;;68.90;8.57;;;23.20;60.50;;;;;;5082623;28;20841;-81
2022/08/16 08:33:31;;;;;;;69.00;7.33;;;23.30;63.20;;;;;;5083547;28;20246;-82
2022/08/16 08:35:59;;;;;;;69.10;7.33;;;23.30;59.90;;;;;;5083242;28;20443;-82
2022/08/16 08:38:26;;;;;;;68.10;7.27;;;23.40;54.80;;;;;;5083481;28;20409;-81
2022/08/16 08:40:53;;;;;;;69.30;6.37;;;23.50;54.70;;;;;;5083603;28;20425;-81
2022/08/16 08:43:18;;;;;;;67.87;7.20;;;23.50;53.20;;;;;;5065398;28;20413;-82
2022/08/16 08:45:44;;;;;;;67.90;6.47;;;23.50;54.40;;;;;;5082148;28;20399;-81
2022/08/16 08:48:10;;;;;;;69.87;7.17;;;23.70;54.60;;;;;;5065005;28;20188;-81
2022/08/16 08:50:36;;;;;;;68.77;6.77;;;23.80;55.60;;;;;;5081788;28;20160;-81
2022/08/16 08:53:02;;;;;;;70.73;9.10;;;23.90;48.60;;;;;;5082172;28;20614;-81
2022/08/16 08:55:30;;;;;;;70.00;8.77;;;24.00;44.00;;;;;;5082409;28;20406;-82
2022/08/16 08:57:56;;;;;;;68.50;8.20;;;24.00;41.70;;;;;;5064886;28;20422;-81
2022/08/16 09:00:23;;;;;;;71.97;7.83;;;24.10;40.10;;;;;;5082476;28;20398;-81
2022/08/16 09:02:50;;;;;;;70.20;9.57;;;24.20;39.40;;;;;;5082858;28;20414;-82
2022/08/16 09:05:18;;;;;;;73.50;9.63;;;24.30;34.70;;;;;;5083244;28;20450;-82
2022/08/16 09:07:44;;;;;;;71.87;9.63;;;24.20;30.60;;;;;;5082140;28;20797;-82
2022/08/16 09:10:11;;;;;;;71.27;9.10;;;24.30;31.80;;;;;;5081811;28;20398;-82
2022/08/16 09:12:38;;;;;;;73.40;9.20;;;24.40;31.90;;;;;;5082495;28;20758;-82
2022/08/16 09:15:06;;;;;;;74.47;9.37;;;24.50;30.80;;;;;;5082424;28;20428;-82
2022/08/16 09:17:32;;;;;;;78.40;9.93;;;24.60;33.40;;;;;;5081761;28;20445;-82
2022/08/16 09:19:58;;;;;;;75.00;10.20;;;24.70;28.50;;;;;;5082041;28;20410;-82
2022/08/16 09:22:26;;;;;;;72.87;9.40;;;24.70;25.40;;;;;;5081435;28;20171;-82
2022/08/16 09:24:52;;;;;;;70.77;10.30;;;24.80;27.50;;;;;;5081784;28;20191;-82
2022/08/16 09:27:18;;;;;;;73.20;10.77;;;24.90;25.60;;;;;;5081672;28;20523;-82
2022/08/16 09:29:44;;;;;;;71.43;9.40;;;25.00;23.40;;;;;;5152833;22;20847;-87
2022/08/16 09:32:10;;;;;;;74.93;10.07;;;25.00;20.70;;;;;;5060324;28;20467;-87
2022/08/16 09:34:36;;;;;;;75.37;10.67;;;25.00;23.70;;;;;;5060459;28;20233;-87
2022/08/16 09:37:01;;;;;;;72.80;10.23;;;25.10;25.80;;;;;;5059409;28;20190;-87
2022/08/16 09:39:28;;;;;;;75.13;11.13;;;25.10;22.20;;;;;;5041321;28;20174;-87
2022/08/16 09:41:55;;;;;;;77.20;11.77;;;25.20;20.10;;;;;;5059286;28;20180;-87
2022/08/16 09:44:25;;;;;;;75.37;11.83;;;25.40;21.10;;;;;;5058982;28;20451;-87
2022/08/16 09:46:52;;;;;;;72.13;9.73;;;25.60;16.70;;;;;;5060006;28;20438;-87
2022/08/16 09:49:19;;;;;;;73.80;9.30;;;25.50;13.60;;;;;;5059850;28;20432;-87
2022/08/16 09:51:45;;;;;;;73.07;9.30;;;25.60;9.30;;;;;;5059860;28;20413;-87
2022/08/16 09:54:13;;;;;;;72.50;9.37;;;25.70;10.00;;;;;;5038836;28;20430;-86
2022/08/16 09:56:40;;;;;;;71.17;8.30;;;25.80;9.50;;;;;;5055011;28;20831;-85
2022/08/16 09:59:07;;;;;;;71.80;7.80;;;25.90;6.10;;;;;;5055377;28;20881;-86
2022/08/16 10:01:37;;;;;;;75.33;8.13;;;26.00;1.90;;;;;;5036874;28;20426;-86
2022/08/16 10:04:06;;;;;;;73.20;8.20;;;26.10;1.00;;;;;;5055950;28;20445;-86
2022/08/16 10:06:33;;;;;;;72.63;7.57;;;26.20;1.50;;;;;;5055371;28;20486;-85
2022/08/16 10:08:59;;;;;;;74.40;7.00;;;26.40;1.00;;;;;;5059371;28;20411;-85
2022/08/16 10:14:29;;;;;;;74.70;8.67;;;26.70;1.00;;;;;;4958513;29;20446;-87
2022/08/16 10:16:59;;;;;;;74.20;7.97;;;26.80;1.00;;;;;;5022486;28;20445;-86
2022/08/16 10:19:28;;;;;;;72.57;9.30;;;26.60;1.00;;;;;;5039761;28;20495;-86
2022/08/16 10:21:54;;;;;;;71.90;8.37;;;26.80;1.00;;;;;;5057202;28;20407;-85
2022/08/16 10:24:21;;;;;;;70.67;8.00;;;26.90;1.00;;;;;;5057399;28;20450;-85
2022/08/16 10:26:47;;;;;;;70.60;7.20;;;27.20;1.00;;;;;;5057980;28;20501;-85
2022/08/16 10:29:13;;;;;;;71.40;7.53;;;27.00;1.00;;;;;;5057016;28;20415;-85
2022/08/16 10:31:39;;;;;;;72.57;8.60;;;27.00;1.00;;;;;;5038988;28;20695;-86
2022/08/16 10:34:05;;;;;;;75.47;8.30;;;27.00;1.00;;;;;;5057102;28;20414;-85
2022/08/16 10:36:31;;;;;;;70.97;6.93;;;27.20;1.00;;;;;;5057530;28;20196;-85
2022/08/16 10:38:56;;;;;;;74.40;7.70;;;27.50;1.00;;;;;;5039705;28;20557;-85
2022/08/16 10:41:22;;;;;;;70.80;8.20;;;27.90;1.00;;;;;;5039844;28;20177;-85
2022/08/16 10:43:50;;;;;;;76.80;9.77;;;28.10;1.00;;;;;;5039823;28;20207;-85
2022/08/16 10:46:16;;;;;;;74.67;10.60;;;28.20;1.00;;;;;;5057588;28;20431;-85
2022/08/16 10:48:43;;;;;;;77.47;9.67;;;28.40;1.00;;;;;;5057771;28;20449;-85
2022/08/16 10:51:10;;;;;;;74.33;7.43;;;28.60;1.00;;;;;;5058054;28;20531;-85
2022/08/16 10:53:36;;;;;;;72.90;6.83;;;28.70;1.00;;;;;;5057435;28;20439;-85
2022/08/16 10:56:08;;;;;;;73.30;7.70;;;28.90;1.00;;;;;;5039232;28;20839;-85
2022/08/16 10:58:34;;;;;;;72.93;7.97;;;29.00;1.00;;;;;;5058360;28;20396;-85
2022/08/16 11:01:05;;;;;;;72.90;7.60;;;29.20;1.00;;;;;;5057119;28;20454;-85
2022/08/16 11:03:32;;;;;;;72.10;8.83;;;29.30;1.00;;;;;;5057621;28;20417;-85
2022/08/16 11:05:58;;;;;;;71.40;8.20;;;29.50;1.00;;;;;;5039359;28;20961;-85
2022/08/16 11:08:32;;;;;;;74.47;9.17;;;29.60;1.00;;;;;;5057768;28;20403;-85
2022/08/16 11:10:58;;;;;;;71.90;9.33;;;29.70;1.00;;;;;;5057502;28;20376;-85
2022/08/16 11:13:26;;;;;;;71.90;8.50;;;29.80;1.00;;;;;;5039536;28;20399;-85
2022/08/16 11:15:54;;;;;;;77.40;7.90;;;29.80;1.00;;;;;;5038848;28;20410;-86
2022/08/16 11:18:21;;;;;;;74.37;7.43;;;29.80;1.00;;;;;;5038141;28;20433;-85
2022/08/16 11:20:47;;;;;;;71.90;8.00;;;29.60;1.00;;;;;;5038095;28;20414;-85
2022/08/16 11:23:13;;;;;;;70.33;6.90;;;29.80;1.00;;;;;;5056538;28;20399;-85
2022/08/16 11:25:39;;;;;;;71.23;6.80;;;30.00;1.00;;;;;;5056084;28;20220;-85
2022/08/16 11:28:06;;;;;;;79.77;7.37;;;30.10;1.00;;;;;;5038103;28;20411;-86
2022/08/16 11:30:32;;;;;;;73.50;6.43;;;30.10;1.00;;;;;;5055598;28;20156;-86
2022/08/16 11:33:00;;;;;;;73.47;6.90;;;30.00;1.00;;;;;;5055915;28;20490;-86
2022/08/16 11:35:27;;;;;;;74.73;5.87;;;30.00;1.00;;;;;;5055480;28;20407;-85
2022/08/16 11:38:21;;;;;;;77.13;6.50;;;30.10;1.00;;;;;;5055866;28;20426;-85
2022/08/16 11:40:55;;;;;;;70.57;6.07;;;30.60;1.00;;;;;;5036335;28;20399;-85
2022/08/16 11:43:27;;;;;;;70.40;5.57;;;30.70;1.00;;;;;;5038523;28;20901;-86
2022/08/16 11:45:55;;;;;;;70.00;6.40;;;30.70;1.00;;;;;;5055576;28;20396;-85
2022/08/16 11:48:29;;;;;;;71.53;7.03;;;30.80;1.00;;;;;;5056206;28;20404;-86
2022/08/16 11:50:56;;;;;;;74.77;6.27;;;30.90;1.00;;;;;;5056439;28;20917;-86
2022/08/16 11:53:23;;;;;;;72.30;6.43;;;31.00;1.00;;;;;;5055419;28;20910;-85
2022/08/16 11:55:49;;;;;;;73.50;6.50;;;31.10;1.00;;;;;;5055305;28;20914;-85
2022/08/16 11:58:15;;;;;;;71.27;6.13;;;31.20;1.00;;;;;;5037748;28;20411;-85
2022/08/16 12:00:45;;;;;;;75.90;6.33;;;31.40;1.00;;;;;;5055871;28;20402;-85
2022/08/16 12:03:15;;;;;;;72.70;6.17;;;31.70;1.00;;;;;;5055985;28;20172;-85
2022/08/16 12:05:44;;;;;;;70.77;7.97;;;31.80;1.00;;;;;;5038327;28;20418;-85
2022/08/16 12:08:10;;;;;;;76.40;9.30;;;31.60;1.00;;;;;;5056388;28;20750;-85
2022/08/16 12:10:38;;;;;;;73.27;10.10;;;31.50;1.00;;;;;;5055633;28;20727;-85
2022/08/16 12:13:08;;;;;;;70.17;6.70;;;31.50;1.00;;;;;;5055788;28;20454;-85
2022/08/16 12:15:34;;;;;;;70.90;7.93;;;31.30;1.00;;;;;;5055992;28;20461;-85
2022/08/16 12:18:01;;;;;;;74.27;10.77;;;31.60;1.00;;;;;;5056362;28;20469;-85
2022/08/16 12:20:30;;;;;;;72.23;11.00;;;31.60;1.00;;;;;;5056064;28;20960;-85
2022/08/16 12:22:56;;;;;;;74.00;12.13;;;31.30;1.00;;;;;;5037779;28;20418;-85
2022/08/16 12:25:24;;;;;;;75.20;12.43;;;31.40;1.00;;;;;;5057166;28;20446;-85
2022/08/16 12:27:51;;;;;;;72.20;11.30;;;31.30;1.00;;;;;;5037580;28;20438;-85
2022/08/16 12:30:21;;;;;;;77.73;12.33;;;31.10;1.00;;;;;;5055556;28;20430;-85
2022/08/16 12:32:47;;;;;;;73.27;11.20;;;31.10;1.00;;;;;;5056320;28;20411;-85
2022/08/16 12:35:16;;;;;;;76.80;10.73;;;31.00;1.00;;;;;;5037770;28;20407;-85
2022/08/16 12:37:44;;;;;;;73.17;9.93;;;30.70;1.00;;;;;;5055234;28;20263;-85
2022/08/16 12:40:15;;;;;;;74.53;11.60;;;30.80;1.00;;;;;;5055061;28;20407;-85